createdAt,value
2022-11-24T00:05:26.083Z,98660.2
2022-11-24T00:11:23.905Z,98659.9
2022-11-24T00:17:02.047Z,98660.2
2022-11-24T00:22:49.206Z,98656.5
2022-11-24T00:28:26.940Z,98653.6
2022-11-24T00:34:02.326Z,98649
2022-11-24T00:39:44.971Z,98663.3
2022-11-24T00:45:20.906Z,98663.8
2022-11-24T00:50:56.091Z,98662.5
2022-11-24T00:56:38.601Z,98653.5
2022-11-24T01:02:14.051Z,98654.7
2022-11-24T01:07:51.343Z,98652.1
2022-11-24T01:13:26.697Z,98646.7
2022-11-24T01:19:31.136Z,98639.9
2022-11-24T01:25:08.569Z,98648.2
2022-11-24T01:30:53.396Z,98653.5
2022-11-24T01:37:04.034Z,98654.3
2022-11-24T01:42:39.098Z,98658.1
2022-11-24T01:48:35.568Z,98647.5
2022-11-24T01:54:09.211Z,98646.6
2022-11-24T01:59:56.514Z,98656.1
2022-11-24T02:05:34.448Z,98659
2022-11-24T02:11:21.934Z,98660.9
2022-11-24T02:17:05.141Z,98666.6
2022-11-24T02:22:39.962Z,98671
2022-11-24T02:28:15.201Z,98684.1
2022-11-24T02:33:50.807Z,98686.8
2022-11-24T02:39:25.403Z,98680
2022-11-24T02:45:00.437Z,98672.1
2022-11-24T02:50:35.376Z,98655.4
2022-11-24T02:56:10.607Z,98657.4
2022-11-24T03:01:50.088Z,98664.5
2022-11-24T03:07:30.157Z,98662.5
2022-11-24T03:13:05.553Z,98652.5
2022-11-24T03:18:40.259Z,98637.7
2022-11-24T03:24:15.083Z,98636.6
2022-11-24T03:29:50.203Z,98635.6
2022-11-24T03:36:10.542Z,98640.5
2022-11-24T03:41:45.479Z,98647.6
2022-11-24T03:47:41.994Z,98646.9
2022-11-24T03:53:14.666Z,98653.6
2022-11-24T03:58:50.798Z,98648.8
2022-11-24T04:04:25.665Z,98648.2
2022-11-24T04:10:01.535Z,98633.9
2022-11-24T04:15:36.547Z,98622.6
2022-11-24T04:21:12.281Z,98630
2022-11-24T04:26:48.202Z,98630.9
2022-11-24T04:32:39.862Z,98624.5
2022-11-24T04:39:29.327Z,98622.5
2022-11-24T04:45:06.987Z,98596.7
2022-11-24T04:50:42.283Z,98599.4
2022-11-24T04:56:38.879Z,98597.1
2022-11-24T05:02:14.265Z,98605.7
2022-11-24T05:07:52.524Z,98619.8
2022-11-24T05:13:31.027Z,98614.1
2022-11-24T05:19:08.502Z,98622.5
2022-11-24T05:24:44.643Z,98613.8
2022-11-24T05:30:27.723Z,98592.8
2022-11-24T05:36:05.771Z,98584.6
2022-11-24T05:41:41.583Z,98580.7
2022-11-24T05:47:38.384Z,98588
2022-11-24T05:53:11.464Z,98590.7
2022-11-24T05:58:46.917Z,98588.3
2022-11-24T06:04:21.795Z,98610.4
2022-11-24T06:09:57.060Z,98598.6
2022-11-24T06:15:31.936Z,98616
2022-11-24T06:21:12.756Z,98614.3
2022-11-24T06:26:47.956Z,98606
2022-11-24T06:32:23.010Z,98615.9
2022-11-24T06:37:58.017Z,98603.7
2022-11-24T06:43:34.072Z,98604.6
2022-11-24T06:49:40.917Z,98606.2
2022-11-24T06:55:13.873Z,98608.4
2022-11-24T07:00:53.246Z,98617.4
2022-11-24T07:06:30.082Z,98597.8
2022-11-24T07:12:05.244Z,98597.9
2022-11-24T07:17:40.637Z,98600
2022-11-24T07:23:15.973Z,98601.5
2022-11-24T07:28:52.125Z,98587.9
2022-11-24T07:34:27.378Z,98585.3
2022-11-24T07:40:02.771Z,98572.5
2022-11-24T07:45:37.878Z,98597.3
2022-11-24T07:51:13.693Z,98602.8
2022-11-24T07:56:50.646Z,98593.7
2022-11-24T08:02:25.810Z,98593.5
2022-11-24T08:08:01.286Z,98590.7
2022-11-24T08:13:36.437Z,98591
2022-11-24T08:19:12.212Z,98577.9
2022-11-24T08:24:52.198Z,98566.9
2022-11-24T08:30:28.050Z,98557.9
2022-11-24T08:36:03.373Z,98561.8
2022-11-24T08:41:42.106Z,98551.7
2022-11-24T08:47:39.073Z,98539.4
2022-11-24T08:53:12.949Z,98532
2022-11-24T08:58:54.584Z,98539.9
2022-11-24T09:04:33.135Z,98547.5
2022-11-24T09:10:15.040Z,98555.6
2022-11-24T09:15:50.892Z,98534.8
2022-11-24T09:21:29.880Z,98524.5
2022-11-24T09:27:05.027Z,98502.5
2022-11-24T09:32:39.994Z,98507.7
2022-11-24T09:38:15.658Z,98516.1
2022-11-24T09:43:50.924Z,98505.8
2022-11-24T09:49:52.411Z,98506.5
2022-11-24T09:55:25.818Z,98486.8
2022-11-24T10:01:04.266Z,98477.3
2022-11-24T10:06:40.068Z,98473.7
2022-11-24T10:12:16.961Z,98488.8
2022-11-24T10:17:52.643Z,98482.1
2022-11-24T10:23:29.114Z,98477.3
2022-11-24T10:29:04.660Z,98471.8
2022-11-24T10:34:50.895Z,98463.5
2022-11-24T10:40:58.777Z,98464.5
2022-11-24T10:46:57.370Z,98458.7
2022-11-24T10:52:37.240Z,98442.5
2022-11-24T10:58:12.243Z,98441.6
2022-11-24T11:03:47.909Z,98428
2022-11-24T11:09:26.244Z,98410.5
2022-11-24T11:15:04.077Z,98379.5
2022-11-24T11:20:47.533Z,98384
2022-11-24T11:26:51.630Z,98381.4
2022-11-24T11:39:53.626Z,98352.1
2022-11-24T11:45:32.703Z,98354.3
2022-11-24T11:51:25.123Z,98362.2
2022-11-24T11:57:01.738Z,98372
2022-11-24T12:02:41.124Z,98365.2
2022-11-24T12:09:21.146Z,98331.3
2022-11-24T12:15:29.071Z,98313.7
2022-11-24T12:21:35.994Z,98297.6
2022-11-24T12:27:25.777Z,98303.3
2022-11-24T12:33:04.461Z,98307.1
2022-11-24T12:39:04.804Z,98320.3
2022-11-24T12:44:39.973Z,98323.6
2022-11-24T12:50:16.193Z,98337.1
2022-11-24T12:55:51.251Z,98349.4
2022-11-24T13:01:31.013Z,98373.5
2022-11-24T13:07:07.993Z,98394.1
2022-11-24T13:12:43.314Z,98396
2022-11-24T13:18:19.025Z,98417.7
2022-11-24T13:23:55.008Z,98437.1
2022-11-24T13:29:30.144Z,98446.3
2022-11-24T13:35:05.332Z,98424.5
2022-11-24T13:41:28.397Z,98420.9
2022-11-24T13:47:25.791Z,98428.6
2022-11-24T13:52:59.039Z,98439
2022-11-24T13:58:34.471Z,98451.5
2022-11-24T14:04:37.880Z,98443
2022-11-24T14:10:13.389Z,98444.8
2022-11-24T14:15:48.864Z,98443.5
2022-11-24T14:21:24.040Z,98461.8
2022-11-24T14:26:59.656Z,98485
2022-11-24T14:32:34.888Z,98483.7
2022-11-24T14:38:09.781Z,98477.1
2022-11-24T14:43:45.457Z,98491.2
2022-11-24T14:49:43.312Z,98486.3
2022-11-24T14:55:23.720Z,98494.7
2022-11-24T15:00:58.938Z,98492.6
2022-11-24T15:06:34.631Z,98497
2022-11-24T15:12:10.147Z,98484.5
2022-11-24T15:17:45.629Z,98474.5
2022-11-24T15:23:22.090Z,98477.8
2022-11-24T15:28:57.129Z,98474.3
2022-11-24T15:34:32.597Z,98455.5
2022-11-24T15:40:10.853Z,98454.4
2022-11-24T15:45:45.844Z,98439.6
2022-11-24T15:51:21.418Z,98447.7
2022-11-24T15:56:57.537Z,98455.6
2022-11-24T16:02:40.619Z,98455
2022-11-24T16:08:25.822Z,98453.4
2022-11-24T16:14:04.829Z,98450.2
2022-11-24T16:20:01.509Z,98447.4
2022-11-24T16:25:36.593Z,98461.8
2022-11-24T16:31:14.658Z,98447.4
2022-11-24T16:36:51.602Z,98467.9
2022-11-24T16:42:27.006Z,98472.8
2022-11-24T16:48:23.682Z,98481
2022-11-24T16:53:56.253Z,98485.1
2022-11-24T16:59:33.628Z,98501.1
2022-11-24T17:05:08.987Z,98517.5
2022-11-24T17:10:46.967Z,98534.6
2022-11-24T17:16:23.119Z,98532.8
2022-11-24T17:22:17.141Z,98531.3
2022-11-24T17:28:14.088Z,98548.6
2022-11-24T17:33:49.185Z,98544.5
2022-11-24T17:39:27.844Z,98551.7
2022-11-24T17:45:07.861Z,98566.9
2022-11-24T17:50:45.563Z,98555.8
2022-11-24T17:56:21.975Z,98550.9
2022-11-24T18:01:58.457Z,98532.2
2022-11-24T18:07:34.809Z,98519.9
2022-11-24T18:13:59.651Z,98485
2022-11-24T18:19:38.846Z,98439
2022-11-24T18:25:13.792Z,98424
2022-11-24T18:30:50.089Z,98437.8
2022-11-24T18:36:31.410Z,98440.5
2022-11-24T18:42:07.698Z,98429.1
2022-11-24T18:48:04.725Z,98410.3
2022-11-24T18:53:37.654Z,98384.7
2022-11-24T18:59:12.718Z,98369.4
2022-11-24T19:04:48.549Z,98384.4
2022-11-24T19:10:24.871Z,98407.6
2022-11-24T19:16:00.465Z,98426.3
2022-11-24T19:21:35.804Z,98467.6
2022-11-24T19:27:11.391Z,98465.7
2022-11-24T19:32:46.766Z,98455.8
2022-11-24T19:38:30.623Z,98463.6
2022-11-24T19:44:11.821Z,98451.4
2022-11-24T19:49:48.951Z,98449.5
2022-11-24T19:55:24.400Z,98454.5
2022-11-24T20:01:01.434Z,98462.8
2022-11-24T20:06:38.007Z,98459
2022-11-24T20:12:15.406Z,98469.7
2022-11-24T20:17:52.680Z,98465.6
2022-11-24T20:23:30.233Z,98458.5
2022-11-24T20:29:05.971Z,98475.4
2022-11-24T20:34:42.672Z,98483.8
2022-11-24T20:40:18.068Z,98476.2
2022-11-24T20:45:54.487Z,98489.8
2022-11-24T20:51:34.632Z,98491.5
2022-11-24T20:57:13.803Z,98490.6
2022-11-24T21:02:50.455Z,98504.2
2022-11-24T21:08:25.946Z,98511.1
2022-11-24T21:14:02.681Z,98508
2022-11-24T21:19:43.331Z,98521.8
2022-11-24T21:25:23.898Z,98536.1
2022-11-24T21:30:58.785Z,98541.9
2022-11-24T21:36:38.031Z,98544.5
2022-11-24T21:42:19.743Z,98537.5
2022-11-24T21:48:18.183Z,98539.1
2022-11-24T21:53:51.090Z,98541.5
2022-11-24T21:59:26.415Z,98552.1
2022-11-24T22:05:01.134Z,98570.3
2022-11-24T22:10:45.245Z,98577.7
2022-11-24T22:16:20.762Z,98584.5
2022-11-24T22:21:57.382Z,98589.6
2022-11-24T22:27:32.801Z,98597.4
2022-11-24T22:33:08.349Z,98603.6
2022-11-24T22:38:43.369Z,98605
2022-11-24T22:44:19.742Z,98612.8
2022-11-24T22:49:54.607Z,98617.6
2022-11-24T22:55:33.838Z,98618.9
2022-11-24T23:01:09.080Z,98627.6
2022-11-24T23:06:45.631Z,98630.7
2022-11-24T23:12:21.664Z,98643.2
2022-11-24T23:17:58.703Z,98651.6
2022-11-24T23:23:33.578Z,98653.3
2022-11-24T23:29:09.907Z,98648.2
2022-11-24T23:34:45.098Z,98652.7
2022-11-24T23:40:20.519Z,98658.1
2022-11-24T23:45:56.575Z,98665.2
2022-11-24T23:51:32.412Z,98671.4
2022-11-24T23:57:07.906Z,98689
